sensor_id;sensor_type;location;lat;lon;timestamp;pressure;altitude;pressure_sealevel;temperature;humidity
83246;BME280;73140;46.754;17.714;2023-11-19T00:01:01;100202.66;;;2.21;78.22
83246;BME280;73140;46.754;17.714;2023-11-19T00:03:27;100250.78;;;2.43;79.49
83246;BME280;73140;46.754;17.714;2023-11-19T00:05:53;100195.44;;;2.50;79.11
83246;BME280;73140;46.754;17.714;2023-11-19T00:08:20;100276.81;;;3.09;77.64
83246;BME280;73140;46.754;17.714;2023-11-19T00:10:49;100292.88;;;3.16;76.99
83246;BME280;73140;46.754;17.714;2023-11-19T00:13:16;100293.72;;;3.51;75.87
83246;BME280;73140;46.754;17.714;2023-11-19T00:15:42;100276.56;;;3.56;74.79
83246;BME280;73140;46.754;17.714;2023-11-19T00:18:08;100185.50;;;3.29;73.20
83246;BME280;73140;46.754;17.714;2023-11-19T00:20:34;100234.81;;;3.76;72.96
83246;BME280;73140;46.754;17.714;2023-11-19T00:23:00;100260.50;;;3.85;72.37
83246;BME280;73140;46.754;17.714;2023-11-19T00:25:28;100174.13;;;3.47;72.88
83246;BME280;73140;46.754;17.714;2023-11-19T00:27:54;100252.81;;;3.88;71.82
83246;BME280;73140;46.754;17.714;2023-11-19T00:30:23;100172.50;;;3.49;71.61
83246;BME280;73140;46.754;17.714;2023-11-19T00:32:49;100254.72;;;3.92;72.19
83246;BME280;73140;46.754;17.714;2023-11-19T00:35:17;100273.75;;;3.88;72.07
83246;BME280;73140;46.754;17.714;2023-11-19T00:37:43;100239.53;;;3.66;71.56
83246;BME280;73140;46.754;17.714;2023-11-19T00:40:13;100195.28;;;3.33;72.17
83246;BME280;73140;46.754;17.714;2023-11-19T00:42:44;100229.09;;;3.66;71.04
83246;BME280;73140;46.754;17.714;2023-11-19T00:45:12;100225.19;;;3.58;71.62
83246;BME280;73140;46.754;17.714;2023-11-19T00:47:43;100284.72;;;3.81;71.99
83246;BME280;73140;46.754;17.714;2023-11-19T00:50:12;100128.03;;;3.12;71.06
83246;BME280;73140;46.754;17.714;2023-11-19T00:52:41;100205.09;;;3.57;71.31
83246;BME280;73140;46.754;17.714;2023-11-19T00:55:10;100224.16;;;3.72;71.29
83246;BME280;73140;46.754;17.714;2023-11-19T00:57:40;100188.47;;;3.55;70.23
83246;BME280;73140;46.754;17.714;2023-11-19T01:00:09;100260.69;;;3.88;70.58
83246;BME280;73140;46.754;17.714;2023-11-19T01:02:54;100166.78;;;3.20;70.86
83246;BME280;73140;46.754;17.714;2023-11-19T01:05:29;100214.47;;;3.52;70.58
83246;BME280;73140;46.754;17.714;2023-11-19T01:07:56;100208.47;;;3.54;71.32
83246;BME280;73140;46.754;17.714;2023-11-19T01:10:22;100214.75;;;3.58;71.17
83246;BME280;73140;46.754;17.714;2023-11-19T01:12:54;100179.09;;;3.41;71.93
83246;BME280;73140;46.754;17.714;2023-11-19T01:15:26;100196.41;;;3.39;71.89
83246;BME280;73140;46.754;17.714;2023-11-19T01:17:53;100255.91;;;3.79;72.91
83246;BME280;73140;46.754;17.714;2023-11-19T01:20:23;100258.53;;;3.79;72.72
83246;BME280;73140;46.754;17.714;2023-11-19T01:22:49;100201.66;;;3.58;72.84
83246;BME280;73140;46.754;17.714;2023-11-19T01:25:19;100181.25;;;3.31;72.70
83246;BME280;73140;46.754;17.714;2023-11-19T01:27:45;100177.06;;;3.35;73.32
83246;BME280;73140;46.754;17.714;2023-11-19T01:30:20;100187.88;;;3.43;72.53
83246;BME280;73140;46.754;17.714;2023-11-19T01:33:05;100255.34;;;3.87;73.43
83246;BME280;73140;46.754;17.714;2023-11-19T01:35:41;100236.81;;;3.82;73.09
83246;BME280;73140;46.754;17.714;2023-11-19T01:38:13;100192.88;;;3.56;73.80
83246;BME280;73140;46.754;17.714;2023-11-19T01:40:44;100251.34;;;3.75;74.65
83246;BME280;73140;46.754;17.714;2023-11-19T01:43:10;100182.66;;;3.43;74.90
83246;BME280;73140;46.754;17.714;2023-11-19T01:45:46;100246.16;;;3.77;75.50
83246;BME280;73140;46.754;17.714;2023-11-19T01:48:16;100153.84;;;3.23;76.62
83246;BME280;73140;46.754;17.714;2023-11-19T01:50:45;100164.97;;;3.37;76.34
83246;BME280;73140;46.754;17.714;2023-11-19T01:53:11;100148.13;;;3.50;77.63
83246;BME280;73140;46.754;17.714;2023-11-19T01:55:51;100130.25;;;3.59;77.58
83246;BME280;73140;46.754;17.714;2023-11-19T01:58:20;100124.19;;;3.60;76.74
83246;BME280;73140;46.754;17.714;2023-11-19T02:00:54;100152.13;;;3.61;77.93
83246;BME280;73140;46.754;17.714;2023-11-19T02:03:23;100213.03;;;3.95;77.93
83246;BME280;73140;46.754;17.714;2023-11-19T02:05:56;100139.59;;;3.54;77.67
83246;BME280;73140;46.754;17.714;2023-11-19T02:08:24;100151.44;;;3.65;77.92
83246;BME280;73140;46.754;17.714;2023-11-19T02:10:53;100119.66;;;3.56;76.97
83246;BME280;73140;46.754;17.714;2023-11-19T02:13:28;100203.50;;;3.97;77.21
83246;BME280;73140;46.754;17.714;2023-11-19T02:15:57;100168.69;;;3.79;77.19
83246;BME280;73140;46.754;17.714;2023-11-19T02:18:27;100119.13;;;3.45;78.07
83246;BME280;73140;46.754;17.714;2023-11-19T02:20:57;100131.97;;;3.58;76.93
83246;BME280;73140;46.754;17.714;2023-11-19T02:23:37;100144.44;;;3.64;76.90
83246;BME280;73140;46.754;17.714;2023-11-19T02:26:33;100185.88;;;3.74;77.49
83246;BME280;73140;46.754;17.714;2023-11-19T02:29:06;100181.63;;;3.76;77.46
83246;BME280;73140;46.754;17.714;2023-11-19T02:31:36;100098.84;;;3.40;76.56
83246;BME280;73140;46.754;17.714;2023-11-19T02:34:10;100144.03;;;3.74;76.20
83246;BME280;73140;46.754;17.714;2023-11-19T02:36:38;100151.78;;;3.72;77.15
83246;BME280;73140;46.754;17.714;2023-11-19T02:39:32;100091.69;;;3.36;75.67
83246;BME280;73140;46.754;17.714;2023-11-19T02:42:08;100060.47;;;3.39;76.26
83246;BME280;73140;46.754;17.714;2023-11-19T02:44:38;100089.34;;;3.61;75.37
83246;BME280;73140;46.754;17.714;2023-11-19T02:47:05;100069.63;;;3.48;74.90
83246;BME280;73140;46.754;17.714;2023-11-19T02:49:38;100071.38;;;3.49;73.48
83246;BME280;73140;46.754;17.714;2023-11-19T02:52:09;100147.66;;;3.77;75.01
83246;BME280;73140;46.754;17.714;2023-11-19T02:54:36;100048.19;;;3.38;74.62
83246;BME280;73140;46.754;17.714;2023-11-19T02:57:03;100138.03;;;3.76;74.62
83246;BME280;73140;46.754;17.714;2023-11-19T02:59:32;100046.81;;;3.26;73.24
83246;BME280;73140;46.754;17.714;2023-11-19T03:02:20;100073.25;;;3.32;72.71
83246;BME280;73140;46.754;17.714;2023-11-19T03:04:49;100098.78;;;3.57;71.66
83246;BME280;73140;46.754;17.714;2023-11-19T03:07:44;100074.22;;;3.34;71.85
83246;BME280;73140;46.754;17.714;2023-11-19T03:10:10;100014.69;;;3.10;72.15
83246;BME280;73140;46.754;17.714;2023-11-19T03:12:44;100006.81;;;3.08;72.64
83246;BME280;73140;46.754;17.714;2023-11-19T03:15:13;100140.38;;;3.70;73.34
83246;BME280;73140;46.754;17.714;2023-11-19T03:17:46;100081.50;;;3.42;74.10
83246;BME280;73140;46.754;17.714;2023-11-19T03:20:13;100124.47;;;3.66;74.51
83246;BME280;73140;46.754;17.714;2023-11-19T03:22:48;100097.50;;;3.67;75.47
83246;BME280;73140;46.754;17.714;2023-11-19T03:25:16;100027.94;;;3.32;74.93
83246;BME280;73140;46.754;17.714;2023-11-19T03:27:46;100122.97;;;3.71;75.86
83246;BME280;73140;46.754;17.714;2023-11-19T03:30:12;99978.63;;;3.01;75.29
83246;BME280;73140;46.754;17.714;2023-11-19T03:32:38;100065.22;;;3.47;72.90
83246;BME280;73140;46.754;17.714;2023-11-19T03:35:09;100015.25;;;3.41;73.60
83246;BME280;73140;46.754;17.714;2023-11-19T03:37:45;100036.94;;;3.39;72.70
83246;BME280;73140;46.754;17.714;2023-11-19T03:40:18;100027.28;;;3.38;71.66
83246;BME280;73140;46.754;17.714;2023-11-19T03:42:51;100099.06;;;3.63;72.35
83246;BME280;73140;46.754;17.714;2023-11-19T03:45:18;100001.56;;;3.08;70.86
83246;BME280;73140;46.754;17.714;2023-11-19T03:47:51;99975.69;;;2.95;71.20
83246;BME280;73140;46.754;17.714;2023-11-19T03:50:19;100004.09;;;3.07;71.80
83246;BME280;73140;46.754;17.714;2023-11-19T03:52:51;100001.63;;;3.10;70.93
83246;BME280;73140;46.754;17.714;2023-11-19T03:55:23;100040.09;;;3.31;71.04
83246;BME280;73140;46.754;17.714;2023-11-19T03:57:49;99996.00;;;3.20;70.94
83246;BME280;73140;46.754;17.714;2023-11-19T04:00:22;99985.34;;;2.96;71.51
83246;BME280;73140;46.754;17.714;2023-11-19T04:02:50;99934.88;;;2.78;71.86
83246;BME280;73140;46.754;17.714;2023-11-19T04:05:22;100022.91;;;3.17;71.19
83246;BME280;73140;46.754;17.714;2023-11-19T04:07:48;100020.56;;;3.23;70.94
83246;BME280;73140;46.754;17.714;2023-11-19T04:10:17;99975.44;;;3.08;70.92
83246;BME280;73140;46.754;17.714;2023-11-19T04:12:44;100053.78;;;3.45;71.65
83246;BME280;73140;46.754;17.714;2023-11-19T04:15:20;99973.78;;;3.10;70.91
83246;BME280;73140;46.754;17.714;2023-11-19T04:17:49;100034.44;;;3.42;71.57
83246;BME280;73140;46.754;17.714;2023-11-19T04:20:18;100030.88;;;3.40;71.05
83246;BME280;73140;46.754;17.714;2023-11-19T04:22:49;100035.13;;;3.38;72.38
83246;BME280;73140;46.754;17.714;2023-11-19T04:25:21;99922.22;;;2.68;71.28
83246;BME280;73140;46.754;17.714;2023-11-19T04:27:50;99993.59;;;3.24;71.56
83246;BME280;73140;46.754;17.714;2023-11-19T04:30:19;100028.28;;;3.40;72.44
83246;BME280;73140;46.754;17.714;2023-11-19T04:32:55;99935.69;;;3.15;71.94
83246;BME280;73140;46.754;17.714;2023-11-19T04:35:24;99940.34;;;3.22;71.97
83246;BME280;73140;46.754;17.714;2023-11-19T04:37:55;99961.13;;;3.39;71.05
83246;BME280;73140;46.754;17.714;2023-11-19T04:40:23;99933.91;;;3.14;71.50
83246;BME280;73140;46.754;17.714;2023-11-19T04:42:54;99925.53;;;3.21;70.97
83246;BME280;73140;46.754;17.714;2023-11-19T04:45:20;99913.53;;;3.26;71.45
83246;BME280;73140;46.754;17.714;2023-11-19T04:47:48;99933.53;;;3.26;71.02
83246;BME280;73140;46.754;17.714;2023-11-19T04:50:14;99916.91;;;3.24;72.14
83246;BME280;73140;46.754;17.714;2023-11-19T04:52:40;99918.50;;;3.20;70.88
83246;BME280;73140;46.754;17.714;2023-11-19T04:55:12;99940.22;;;3.39;71.86
83246;BME280;73140;46.754;17.714;2023-11-19T04:57:40;99898.41;;;3.19;71.58
83246;BME280;73140;46.754;17.714;2023-11-19T05:00:07;99933.59;;;3.47;71.38
83246;BME280;73140;46.754;17.714;2023-11-19T05:02:35;99970.38;;;3.70;71.12
83246;BME280;73140;46.754;17.714;2023-11-19T05:05:01;99895.88;;;3.21;71.33
83246;BME280;73140;46.754;17.714;2023-11-19T05:07:29;99862.44;;;3.14;71.96
83246;BME280;73140;46.754;17.714;2023-11-19T05:09:55;99860.75;;;3.14;72.91
83246;BME280;73140;46.754;17.714;2023-11-19T05:12:23;99930.91;;;3.45;71.57
83246;BME280;73140;46.754;17.714;2023-11-19T05:14:52;99959.00;;;3.70;72.98
83246;BME280;73140;46.754;17.714;2023-11-19T05:17:18;99861.03;;;3.20;73.69
83246;BME280;73140;46.754;17.714;2023-11-19T05:19:44;99978.66;;;3.81;75.49
83246;BME280;73140;46.754;17.714;2023-11-19T05:22:11;99878.34;;;3.18;75.25
83246;BME280;73140;46.754;17.714;2023-11-19T05:24:37;99865.44;;;3.02;75.92
83246;BME280;73140;46.754;17.714;2023-11-19T05:27:03;99910.78;;;3.23;75.36
83246;BME280;73140;46.754;17.714;2023-11-19T05:29:31;99949.81;;;3.59;77.31
83246;BME280;73140;46.754;17.714;2023-11-19T05:31:57;99854.38;;;3.08;75.85
83246;BME280;73140;46.754;17.714;2023-11-19T05:34:23;99892.91;;;3.32;76.21
83246;BME280;73140;46.754;17.714;2023-11-19T05:36:50;99832.16;;;2.98;76.96
83246;BME280;73140;46.754;17.714;2023-11-19T05:39:16;99916.81;;;3.42;77.66
83246;BME280;73140;46.754;17.714;2023-11-19T05:41:44;99991.63;;;3.78;73.82
83246;BME280;73140;46.754;17.714;2023-11-19T05:44:10;99856.25;;;3.31;70.19
83246;BME280;73140;46.754;17.714;2023-11-19T05:46:38;99814.09;;;3.23;69.67
83246;BME280;73140;46.754;17.714;2023-11-19T05:49:08;99816.53;;;3.40;69.72
83246;BME280;73140;46.754;17.714;2023-11-19T05:51:36;99818.38;;;3.42;70.31
83246;BME280;73140;46.754;17.714;2023-11-19T05:54:03;99885.88;;;3.94;68.84
83246;BME280;73140;46.754;17.714;2023-11-19T05:56:29;99835.38;;;3.74;68.58
83246;BME280;73140;46.754;17.714;2023-11-19T05:58:58;99911.50;;;4.23;69.41
83246;BME280;73140;46.754;17.714;2023-11-19T06:01:28;99832.69;;;3.72;70.99
83246;BME280;73140;46.754;17.714;2023-11-19T06:03:58;99825.22;;;3.81;70.80
83246;BME280;73140;46.754;17.714;2023-11-19T06:06:24;99898.25;;;4.18;70.69
83246;BME280;73140;46.754;17.714;2023-11-19T06:08:52;99901.75;;;4.19;68.73
83246;BME280;73140;46.754;17.714;2023-11-19T06:11:18;99934.38;;;4.27;68.38
83246;BME280;73140;46.754;17.714;2023-11-19T06:13:46;99861.09;;;4.06;66.55
83246;BME280;73140;46.754;17.714;2023-11-19T06:16:13;99838.97;;;3.98;66.93
83246;BME280;73140;46.754;17.714;2023-11-19T06:18:39;99867.06;;;4.24;71.18
83246;BME280;73140;46.754;17.714;2023-11-19T06:21:08;99825.00;;;3.98;71.45
83246;BME280;73140;46.754;17.714;2023-11-19T06:23:34;99814.16;;;3.89;72.54
83246;BME280;73140;46.754;17.714;2023-11-19T06:26:01;99892.47;;;4.27;72.31
83246;BME280;73140;46.754;17.714;2023-11-19T06:28:27;99853.19;;;4.05;71.71
83246;BME280;73140;46.754;17.714;2023-11-19T06:30:53;99834.13;;;4.07;67.93
83246;BME280;73140;46.754;17.714;2023-11-19T06:33:19;99877.91;;;4.34;70.42
83246;BME280;73140;46.754;17.714;2023-11-19T06:35:45;99882.88;;;4.27;70.14
83246;BME280;73140;46.754;17.714;2023-11-19T06:38:13;99886.56;;;4.33;69.98
83246;BME280;73140;46.754;17.714;2023-11-19T06:40:39;99815.94;;;4.12;69.69
83246;BME280;73140;46.754;17.714;2023-11-19T06:43:07;99809.84;;;4.11;68.29
83246;BME280;73140;46.754;17.714;2023-11-19T06:45:35;99798.06;;;4.22;68.38
83246;BME280;73140;46.754;17.714;2023-11-19T06:48:03;99934.28;;;4.92;67.14
83246;BME280;73140;46.754;17.714;2023-11-19T06:50:32;99851.78;;;4.59;67.62
83246;BME280;73140;46.754;17.714;2023-11-19T06:52:59;99849.41;;;4.65;68.28
83246;BME280;73140;46.754;17.714;2023-11-19T06:55:27;99863.91;;;4.79;67.97
83246;BME280;73140;46.754;17.714;2023-11-19T06:57:53;99846.63;;;4.84;65.64
83246;BME280;73140;46.754;17.714;2023-11-19T07:00:22;99926.44;;;5.16;67.50
83246;BME280;73140;46.754;17.714;2023-11-19T07:02:48;99797.50;;;4.55;66.17
83246;BME280;73140;46.754;17.714;2023-11-19T07:05:18;99777.72;;;4.63;65.03
83246;BME280;73140;46.754;17.714;2023-11-19T07:07:48;99915.25;;;5.21;66.69
83246;BME280;73140;46.754;17.714;2023-11-19T07:10:17;99793.44;;;4.63;66.45
83246;BME280;73140;46.754;17.714;2023-11-19T07:12:48;99831.13;;;4.90;66.53
83246;BME280;73140;46.754;17.714;2023-11-19T07:15:17;99790.44;;;4.76;65.66
83246;BME280;73140;46.754;17.714;2023-11-19T07:17:43;99847.19;;;4.99;65.20
83246;BME280;73140;46.754;17.714;2023-11-19T07:20:13;99840.56;;;5.09;65.12
83246;BME280;73140;46.754;17.714;2023-11-19T07:22:43;99845.72;;;5.07;64.94
83246;BME280;73140;46.754;17.714;2023-11-19T07:25:09;99883.78;;;5.21;66.48
83246;BME280;73140;46.754;17.714;2023-11-19T07:27:35;99880.41;;;5.24;65.98
83246;BME280;73140;46.754;17.714;2023-11-19T07:30:13;99863.59;;;5.17;65.71
83246;BME280;73140;46.754;17.714;2023-11-19T07:32:51;99819.97;;;4.96;66.20
83246;BME280;73140;46.754;17.714;2023-11-19T07:35:19;99824.56;;;5.01;66.05
83246;BME280;73140;46.754;17.714;2023-11-19T07:37:45;99810.66;;;5.04;66.45
83246;BME280;73140;46.754;17.714;2023-11-19T07:40:13;99888.00;;;5.42;66.89
83246;BME280;73140;46.754;17.714;2023-11-19T07:42:40;99805.78;;;4.89;65.75
83246;BME280;73140;46.754;17.714;2023-11-19T07:45:07;99870.03;;;5.27;66.33
83246;BME280;73140;46.754;17.714;2023-11-19T07:47:35;99781.38;;;4.92;66.41
83246;BME280;73140;46.754;17.714;2023-11-19T07:50:01;99902.06;;;5.69;66.88
83246;BME280;73140;46.754;17.714;2023-11-19T07:52:27;99798.53;;;5.07;66.57
83246;BME280;73140;46.754;17.714;2023-11-19T07:54:54;99827.19;;;5.27;66.28
83246;BME280;73140;46.754;17.714;2023-11-19T07:57:22;99860.63;;;5.34;65.94
83246;BME280;73140;46.754;17.714;2023-11-19T07:59:53;99806.25;;;5.03;65.97
83246;BME280;73140;46.754;17.714;2023-11-19T08:02:22;99793.03;;;5.00;65.14
83246;BME280;73140;46.754;17.714;2023-11-19T08:04:50;99831.66;;;5.29;66.31
83246;BME280;73140;46.754;17.714;2023-11-19T08:07:18;99874.66;;;5.59;64.92
83246;BME280;73140;46.754;17.714;2023-11-19T08:09:44;99852.25;;;5.44;65.12
83246;BME280;73140;46.754;17.714;2023-11-19T08:12:11;99826.94;;;5.46;66.31
83246;BME280;73140;46.754;17.714;2023-11-19T08:14:40;99749.16;;;4.94;65.96
83246;BME280;73140;46.754;17.714;2023-11-19T08:17:06;99762.34;;;5.22;65.76
83246;BME280;73140;46.754;17.714;2023-11-19T08:19:32;99790.59;;;5.56;65.86
83246;BME280;73140;46.754;17.714;2023-11-19T08:22:00;99795.84;;;5.56;66.60
83246;BME280;73140;46.754;17.714;2023-11-19T08:24:32;99793.47;;;5.64;66.92
83246;BME280;73140;46.754;17.714;2023-11-19T08:26:58;99813.81;;;5.71;66.24
83246;BME280;73140;46.754;17.714;2023-11-19T08:29:24;99769.97;;;5.68;66.19
83246;BME280;73140;46.754;17.714;2023-11-19T08:31:58;99771.34;;;5.84;65.68
83246;BME280;73140;46.754;17.714;2023-11-19T08:34:26;99738.03;;;5.80;65.17
83246;BME280;73140;46.754;17.714;2023-11-19T08:36:52;99789.53;;;6.03;63.94
83246;BME280;73140;46.754;17.714;2023-11-19T08:39:23;99740.59;;;5.79;66.55
83246;BME280;73140;46.754;17.714;2023-11-19T08:41:49;99756.91;;;5.95;65.29
83246;BME280;73140;46.754;17.714;2023-11-19T08:44:16;99762.38;;;6.03;63.74
83246;BME280;73140;46.754;17.714;2023-11-19T08:46:47;99712.91;;;5.60;62.26
83246;BME280;73140;46.754;17.714;2023-11-19T08:49:13;99779.28;;;6.12;63.72
83246;BME280;73140;46.754;17.714;2023-11-19T08:51:39;99739.22;;;6.19;64.65
83246;BME280;73140;46.754;17.714;2023-11-19T08:54:06;99743.38;;;6.41;62.82
83246;BME280;73140;46.754;17.714;2023-11-19T08:56:33;99806.75;;;6.83;63.68
83246;BME280;73140;46.754;17.714;2023-11-19T08:59:01;99739.03;;;6.43;64.24
83246;BME280;73140;46.754;17.714;2023-11-19T09:01:30;99721.19;;;6.32;64.20
83246;BME280;73140;46.754;17.714;2023-11-19T09:03:58;99725.63;;;6.33;63.88
83246;BME280;73140;46.754;17.714;2023-11-19T09:06:24;99709.78;;;6.30;63.19
83246;BME280;73140;46.754;17.714;2023-11-19T09:08:53;99702.47;;;6.19;63.09
83246;BME280;73140;46.754;17.714;2023-11-19T09:11:19;99742.06;;;6.57;61.80
83246;BME280;73140;46.754;17.714;2023-11-19T09:13:46;99692.91;;;6.22;62.26
83246;BME280;73140;46.754;17.714;2023-11-19T09:16:14;99756.25;;;6.62;61.21
83246;BME280;73140;46.754;17.714;2023-11-19T09:18:41;99696.56;;;6.27;62.36
83246;BME280;73140;46.754;17.714;2023-11-19T09:21:10;99736.53;;;6.48;64.04
83246;BME280;73140;46.754;17.714;2023-11-19T09:23:37;99724.81;;;6.66;65.03
83246;BME280;73140;46.754;17.714;2023-11-19T09:26:05;99671.06;;;6.55;63.07
83246;BME280;73140;46.754;17.714;2023-11-19T09:28:31;99765.22;;;7.01;63.79
83246;BME280;73140;46.754;17.714;2023-11-19T09:30:59;99683.44;;;6.59;60.27
83246;BME280;73140;46.754;17.714;2023-11-19T09:33:25;99704.34;;;6.55;62.32
83246;BME280;73140;46.754;17.714;2023-11-19T09:35:52;99763.34;;;6.97;61.92
83246;BME280;73140;46.754;17.714;2023-11-19T09:38:18;99697.41;;;6.57;61.87
83246;BME280;73140;46.754;17.714;2023-11-19T09:40:44;99742.00;;;6.87;62.11
83246;BME280;73140;46.754;17.714;2023-11-19T09:43:11;99718.47;;;6.91;61.39
83246;BME280;73140;46.754;17.714;2023-11-19T09:45:46;99757.28;;;7.34;61.49
83246;BME280;73140;46.754;17.714;2023-11-19T09:48:18;99669.47;;;6.93;64.42
83246;BME280;73140;46.754;17.714;2023-11-19T09:50:47;99704.63;;;6.98;61.87
83246;BME280;73140;46.754;17.714;2023-11-19T09:53:13;99693.97;;;6.92;64.29
83246;BME280;73140;46.754;17.714;2023-11-19T09:55:40;99686.22;;;6.98;62.26
83246;BME280;73140;46.754;17.714;2023-11-19T09:58:07;99715.13;;;7.31;62.48
83246;BME280;73140;46.754;17.714;2023-11-19T10:00:41;99714.75;;;7.16;61.69
83246;BME280;73140;46.754;17.714;2023-11-19T10:03:12;99726.59;;;7.35;60.79
83246;BME280;73140;46.754;17.714;2023-11-19T10:05:40;99752.44;;;7.51;62.89
83246;BME280;73140;46.754;17.714;2023-11-19T10:08:07;99711.59;;;7.31;62.54
83246;BME280;73140;46.754;17.714;2023-11-19T10:10:36;99699.31;;;7.31;62.49
83246;BME280;73140;46.754;17.714;2023-11-19T10:13:03;99748.38;;;7.65;61.52
83246;BME280;73140;46.754;17.714;2023-11-19T10:15:36;99723.72;;;7.60;61.62
83246;BME280;73140;46.754;17.714;2023-11-19T10:18:14;99738.75;;;7.66;61.12
83246;BME280;73140;46.754;17.714;2023-11-19T10:20:45;99664.56;;;7.44;61.25
83246;BME280;73140;46.754;17.714;2023-11-19T10:23:15;99640.91;;;7.46;60.73
83246;BME280;73140;46.754;17.714;2023-11-19T10:25:44;99597.41;;;7.23;62.41
83246;BME280;73140;46.754;17.714;2023-11-19T10:28:17;99716.97;;;7.73;59.32
83246;BME280;73140;46.754;17.714;2023-11-19T10:30:44;99639.06;;;7.42;60.93
83246;BME280;73140;46.754;17.714;2023-11-19T10:33:11;99620.84;;;7.51;60.91
83246;BME280;73140;46.754;17.714;2023-11-19T10:35:54;99608.44;;;7.45;61.20
83246;BME280;73140;46.754;17.714;2023-11-19T10:38:24;99682.91;;;7.79;61.53
83246;BME280;73140;46.754;17.714;2023-11-19T10:40:53;99622.91;;;7.64;60.44
83246;BME280;73140;46.754;17.714;2023-11-19T10:43:23;99680.94;;;7.70;60.31
83246;BME280;73140;46.754;17.714;2023-11-19T10:45:52;99608.28;;;7.38;61.26
83246;BME280;73140;46.754;17.714;2023-11-19T10:48:22;99685.69;;;7.86;62.74
83246;BME280;73140;46.754;17.714;2023-11-19T10:50:55;99574.22;;;7.44;59.95
83246;BME280;73140;46.754;17.714;2023-11-19T10:53:23;99602.97;;;7.75;62.56
83246;BME280;73140;46.754;17.714;2023-11-19T10:55:54;99598.28;;;7.62;60.42
83246;BME280;73140;46.754;17.714;2023-11-19T10:58:24;99606.50;;;7.77;59.95
83246;BME280;73140;46.754;17.714;2023-11-19T11:01:09;99558.06;;;7.69;59.09
83246;BME280;73140;46.754;17.714;2023-11-19T11:03:44;99637.88;;;8.07;59.57
83246;BME280;73140;46.754;17.714;2023-11-19T11:06:13;99571.47;;;7.81;60.45
83246;BME280;73140;46.754;17.714;2023-11-19T11:08:40;99536.09;;;7.67;58.47
83246;BME280;73140;46.754;17.714;2023-11-19T11:11:15;99513.56;;;7.80;58.40
83246;BME280;73140;46.754;17.714;2023-11-19T11:13:56;99549.47;;;8.23;58.16
83246;BME280;73140;46.754;17.714;2023-11-19T11:16:29;99577.97;;;8.93;57.15
83246;BME280;73140;46.754;17.714;2023-11-19T11:19:06;99619.69;;;9.18;56.02
83246;BME280;73140;46.754;17.714;2023-11-19T11:21:34;99542.91;;;8.46;55.95
83246;BME280;73140;46.754;17.714;2023-11-19T11:27:41;99531.97;;;8.28;57.56
83246;BME280;73140;46.754;17.714;2023-11-19T11:30:49;99632.34;;;8.86;57.57
83246;BME280;73140;46.754;17.714;2023-11-19T11:33:38;99521.66;;;8.37;58.10
83246;BME280;73140;46.754;17.714;2023-11-19T11:36:27;99516.28;;;8.31;57.76
83246;BME280;73140;46.754;17.714;2023-11-19T11:39:22;99592.81;;;8.88;57.25
83246;BME280;73140;46.754;17.714;2023-11-19T11:42:35;99502.88;;;8.71;56.52
83246;BME280;73140;46.754;17.714;2023-11-19T11:45:03;99593.28;;;9.17;56.89
83246;BME280;73140;46.754;17.714;2023-11-19T11:51:08;99489.03;;;8.84;56.70
83246;BME280;73140;46.754;17.714;2023-11-19T11:56:16;99453.19;;;8.98;56.83
83246;BME280;73140;46.754;17.714;2023-11-19T11:58:48;99571.88;;;9.59;57.42
83246;BME280;73140;46.754;17.714;2023-11-19T12:01:18;99528.63;;;9.49;55.97
83246;BME280;73140;46.754;17.714;2023-11-19T12:03:50;99477.28;;;9.24;56.86
83246;BME280;73140;46.754;17.714;2023-11-19T12:06:26;99532.50;;;9.75;55.70
83246;BME280;73140;46.754;17.714;2023-11-19T12:09:01;99517.59;;;9.82;55.49
83246;BME280;73140;46.754;17.714;2023-11-19T12:11:33;99541.59;;;10.02;54.54
83246;BME280;73140;46.754;17.714;2023-11-19T12:14:13;99533.50;;;9.86;55.42
83246;BME280;73140;46.754;17.714;2023-11-19T12:16:44;99548.19;;;9.63;55.71
83246;BME280;73140;46.754;17.714;2023-11-19T12:19:14;99450.47;;;8.92;56.58
83246;BME280;73140;46.754;17.714;2023-11-19T12:22:10;99508.91;;;9.23;58.00
83246;BME280;73140;46.754;17.714;2023-11-19T12:27:51;99536.28;;;9.28;57.28
83246;BME280;73140;46.754;17.714;2023-11-19T12:30:30;99441.53;;;8.81;58.64
83246;BME280;73140;46.754;17.714;2023-11-19T12:32:56;99503.47;;;9.11;56.52
83246;BME280;73140;46.754;17.714;2023-11-19T12:35:29;99431.03;;;8.87;58.33
83246;BME280;73140;46.754;17.714;2023-11-19T12:37:55;99477.91;;;9.05;57.58
83246;BME280;73140;46.754;17.714;2023-11-19T12:41:05;99487.63;;;9.11;58.76
83246;BME280;73140;46.754;17.714;2023-11-19T12:43:44;99420.31;;;8.75;59.75
83246;BME280;73140;46.754;17.714;2023-11-19T12:46:22;99417.00;;;8.88;58.73
83246;BME280;73140;46.754;17.714;2023-11-19T12:49:14;99412.84;;;9.07;60.14
83246;BME280;73140;46.754;17.714;2023-11-19T12:51:46;99409.56;;;9.25;57.48
83246;BME280;73140;46.754;17.714;2023-11-19T12:54:15;99382.38;;;9.32;56.69
83246;BME280;73140;46.754;17.714;2023-11-19T12:56:51;99440.63;;;9.50;55.48
83246;BME280;73140;46.754;17.714;2023-11-19T12:59:30;99454.34;;;9.19;55.34
83246;BME280;73140;46.754;17.714;2023-11-19T13:01:57;99449.31;;;9.37;58.36
83246;BME280;73140;46.754;17.714;2023-11-19T13:04:27;99404.25;;;9.23;57.71
83246;BME280;73140;46.754;17.714;2023-11-19T13:06:55;99412.22;;;9.28;57.36
83246;BME280;73140;46.754;17.714;2023-11-19T13:09:31;99416.91;;;9.53;59.40
83246;BME280;73140;46.754;17.714;2023-11-19T13:11:58;99402.47;;;9.21;56.57
83246;BME280;73140;46.754;17.714;2023-11-19T13:14:39;99413.88;;;9.17;57.45
83246;BME280;73140;46.754;17.714;2023-11-19T13:17:17;99402.09;;;8.92;nan
83246;BME280;73140;46.754;17.714;2023-11-19T13:20:05;99498.72;;;9.50;58.03
83246;BME280;73140;46.754;17.714;2023-11-19T13:22:56;99427.00;;;9.12;58.47
83246;BME280;73140;46.754;17.714;2023-11-19T13:25:23;99423.53;;;9.18;58.40
83246;BME280;73140;46.754;17.714;2023-11-19T13:27:55;99505.91;;;9.60;58.04